sensor_id;sensor_type;location;lat;lon;timestamp;pressure;altitude;pressure_sealevel;temperature;humidity
14902;BME280;7542;49.078;9.194;2023-09-08T00:00:39;98807.84;;;31.50;30.95
14902;BME280;7542;49.078;9.194;2023-09-08T00:01:41;98804.59;;;31.48;30.84
14902;BME280;7542;49.078;9.194;2023-09-08T00:02:43;98808.16;;;31.48;30.57
14902;BME280;7542;49.078;9.194;2023-09-08T00:03:45;98804.09;;;31.45;30.92
14902;BME280;7542;49.078;9.194;2023-09-08T00:04:47;98802.19;;;31.46;31.05
14902;BME280;7542;49.078;9.194;2023-09-08T00:05:49;98806.81;;;31.45;30.86
14902;BME280;7542;49.078;9.194;2023-09-08T00:06:51;98806.31;;;31.43;31.25
14902;BME280;7542;49.078;9.194;2023-09-08T00:07:53;98802.00;;;31.42;30.85
14902;BME280;7542;49.078;9.194;2023-09-08T00:08:55;98804.72;;;31.42;30.92
14902;BME280;7542;49.078;9.194;2023-09-08T00:09:57;98805.03;;;31.41;30.74
14902;BME280;7542;49.078;9.194;2023-09-08T00:10:59;98802.63;;;31.39;30.82
14902;BME280;7542;49.078;9.194;2023-09-08T00:12:01;98809.16;;;31.38;30.84
14902;BME280;7542;49.078;9.194;2023-09-08T00:13:04;98812.66;;;31.39;31.22
14902;BME280;7542;49.078;9.194;2023-09-08T00:14:06;98811.84;;;31.38;30.76
14902;BME280;7542;49.078;9.194;2023-09-08T00:15:09;98807.53;;;31.37;30.92
14902;BME280;7542;49.078;9.194;2023-09-08T00:16:11;98807.81;;;31.36;30.84
14902;BME280;7542;49.078;9.194;2023-09-08T00:17:13;98808.94;;;31.35;31.09
14902;BME280;7542;49.078;9.194;2023-09-08T00:18:15;98811.63;;;31.35;30.90
14902;BME280;7542;49.078;9.194;2023-09-08T00:19:17;98805.41;;;31.34;30.61
14902;BME280;7542;49.078;9.194;2023-09-08T00:20:19;98806.53;;;31.33;30.85
14902;BME280;7542;49.078;9.194;2023-09-08T00:21:21;98804.13;;;31.32;31.22
14902;BME280;7542;49.078;9.194;2023-09-08T00:22:23;98801.41;;;31.32;31.03
14902;BME280;7542;49.078;9.194;2023-09-08T00:23:25;98803.31;;;31.31;30.96
14902;BME280;7542;49.078;9.194;2023-09-08T00:24:28;98801.94;;;31.15;31.04
14902;BME280;7542;49.078;9.194;2023-09-08T00:25:31;98803.69;;;31.25;31.23
14902;BME280;7542;49.078;9.194;2023-09-08T00:26:33;98799.88;;;31.26;31.20
14902;BME280;7542;49.078;9.194;2023-09-08T00:27:35;98810.94;;;31.29;30.72
14902;BME280;7542;49.078;9.194;2023-09-08T00:28:37;98806.63;;;31.28;31.05
14902;BME280;7542;49.078;9.194;2023-09-08T00:29:39;98804.72;;;31.29;30.83
14902;BME280;7542;49.078;9.194;2023-09-08T00:30:41;98808.22;;;31.29;31.10
14902;BME280;7542;49.078;9.194;2023-09-08T00:31:43;98810.16;;;31.29;31.11
14902;BME280;7542;49.078;9.194;2023-09-08T00:32:45;98807.44;;;31.29;30.86
14902;BME280;7542;49.078;9.194;2023-09-08T00:33:47;98803.63;;;31.30;31.03
14902;BME280;7542;49.078;9.194;2023-09-08T00:34:49;98800.91;;;31.30;31.22
14902;BME280;7542;49.078;9.194;2023-09-08T00:35:51;98803.63;;;31.30;30.93
14902;BME280;7542;49.078;9.194;2023-09-08T00:36:55;98812.25;;;31.32;31.03
14902;BME280;7542;49.078;9.194;2023-09-08T00:37:57;98803.63;;;31.30;30.88
14902;BME280;7542;49.078;9.194;2023-09-08T00:38:59;98816.88;;;31.31;30.95
14902;BME280;7542;49.078;9.194;2023-09-08T00:40:00;98807.13;;;31.30;30.98
14902;BME280;7542;49.078;9.194;2023-09-08T00:41:05;98812.53;;;31.30;31.02
14902;BME280;7542;49.078;9.194;2023-09-08T00:42:07;98813.34;;;31.31;30.79
14902;BME280;7542;49.078;9.194;2023-09-08T00:43:09;98806.63;;;31.28;31.17
14902;BME280;7542;49.078;9.194;2023-09-08T00:44:11;98810.44;;;31.27;31.29
14902;BME280;7542;49.078;9.194;2023-09-08T00:45:13;98815.88;;;31.27;31.00
14902;BME280;7542;49.078;9.194;2023-09-08T00:46:16;98809.91;;;31.25;31.34
14902;BME280;7542;49.078;9.194;2023-09-08T00:47:18;98816.97;;;31.26;31.17
14902;BME280;7542;49.078;9.194;2023-09-08T00:48:21;98809.41;;;31.23;31.24
14902;BME280;7542;49.078;9.194;2023-09-08T00:49:23;98811.81;;;31.25;31.24
14902;BME280;7542;49.078;9.194;2023-09-08T00:50:25;98809.41;;;31.23;30.78
14902;BME280;7542;49.078;9.194;2023-09-08T00:51:27;98807.00;;;31.22;31.28
14902;BME280;7542;49.078;9.194;2023-09-08T00:52:29;98808.63;;;31.23;31.28
14902;BME280;7542;49.078;9.194;2023-09-08T00:53:34;98805.09;;;31.22;31.15
14902;BME280;7542;49.078;9.194;2023-09-08T00:54:36;98809.72;;;31.22;31.08
14902;BME280;7542;49.078;9.194;2023-09-08T00:55:40;98810.84;;;31.21;31.33
14902;BME280;7542;49.078;9.194;2023-09-08T00:56:42;98818.16;;;31.20;31.35
14902;BME280;7542;49.078;9.194;2023-09-08T00:57:44;98811.94;;;31.20;31.12
14902;BME280;7542;49.078;9.194;2023-09-08T00:58:46;98817.63;;;31.18;31.22
14902;BME280;7542;49.078;9.194;2023-09-08T00:59:48;98811.72;;;31.16;31.27
14902;BME280;7542;49.078;9.194;2023-09-08T01:00:50;98811.72;;;31.16;31.40
14902;BME280;7542;49.078;9.194;2023-09-08T01:01:52;98817.13;;;31.16;31.52
14902;BME280;7542;49.078;9.194;2023-09-08T01:02:54;98818.19;;;31.15;31.20
14902;BME280;7542;49.078;9.194;2023-09-08T01:03:57;98816.59;;;31.14;31.62
14902;BME280;7542;49.078;9.194;2023-09-08T01:04:59;98823.91;;;31.13;31.79
14902;BME280;7542;49.078;9.194;2023-09-08T01:06:02;98820.41;;;31.13;31.41
14902;BME280;7542;49.078;9.194;2023-09-08T01:07:05;98812.59;;;31.11;31.51
14902;BME280;7542;49.078;9.194;2023-09-08T01:08:08;98815.00;;;31.13;31.59
14902;BME280;7542;49.078;9.194;2023-09-08T01:09:11;98816.91;;;31.12;31.56
14902;BME280;7542;49.078;9.194;2023-09-08T01:10:15;98818.81;;;31.12;31.60
14902;BME280;7542;49.078;9.194;2023-09-08T01:11:19;98818.81;;;31.12;31.90
14902;BME280;7542;49.078;9.194;2023-09-08T01:12:22;98818.00;;;31.11;31.90
14902;BME280;7542;49.078;9.194;2023-09-08T01:13:24;98819.13;;;31.10;31.68
14902;BME280;7542;49.078;9.194;2023-09-08T01:14:27;98815.09;;;31.08;31.65
14902;BME280;7542;49.078;9.194;2023-09-08T01:15:29;98820.03;;;31.06;31.25
14902;BME280;7542;49.078;9.194;2023-09-08T01:16:31;98814.59;;;31.06;31.55
14902;BME280;7542;49.078;9.194;2023-09-08T01:17:35;98810.00;;;31.06;31.37
14902;BME280;7542;49.078;9.194;2023-09-08T01:18:37;98813.81;;;31.05;31.73
14902;BME280;7542;49.078;9.194;2023-09-08T01:19:43;98816.50;;;31.05;31.50
14902;BME280;7542;49.078;9.194;2023-09-08T01:24:29;98817.84;;;31.22;31.20
14902;BME280;7542;49.078;9.194;2023-09-08T01:25:53;98815.22;;;31.16;31.29
14902;BME280;7542;49.078;9.194;2023-09-08T01:26:57;98813.28;;;31.03;31.26
14902;BME280;7542;49.078;9.194;2023-09-08T01:28:01;98814.97;;;30.99;31.39
14902;BME280;7542;49.078;9.194;2023-09-08T01:29:05;98818.00;;;30.98;31.47
14902;BME280;7542;49.078;9.194;2023-09-08T01:30:08;98810.47;;;30.95;31.64
14902;BME280;7542;49.078;9.194;2023-09-08T01:31:11;98809.66;;;30.94;32.13
14902;BME280;7542;49.078;9.194;2023-09-08T01:32:13;98812.38;;;30.94;31.96
14902;BME280;7542;49.078;9.194;2023-09-08T01:33:16;98814.56;;;30.92;32.06
14902;BME280;7542;49.078;9.194;2023-09-08T01:34:19;98812.94;;;30.91;31.80
14902;BME280;7542;49.078;9.194;2023-09-08T01:35:21;98811.84;;;30.92;31.74
14902;BME280;7542;49.078;9.194;2023-09-08T01:36:24;98806.72;;;30.91;31.87
14902;BME280;7542;49.078;9.194;2023-09-08T01:37:26;98809.75;;;30.89;31.59
14902;BME280;7542;49.078;9.194;2023-09-08T01:38:28;98808.13;;;30.88;32.11
14902;BME280;7542;49.078;9.194;2023-09-08T01:39:30;98810.03;;;30.87;31.71
14902;BME280;7542;49.078;9.194;2023-09-08T01:40:32;98806.53;;;30.87;31.85
14902;BME280;7542;49.078;9.194;2023-09-08T01:41:34;98809.25;;;30.87;31.70
14902;BME280;7542;49.078;9.194;2023-09-08T01:42:37;98799.50;;;30.86;31.70
14902;BME280;7542;49.078;9.194;2023-09-08T01:43:39;98801.41;;;30.85;31.53
14902;BME280;7542;49.078;9.194;2023-09-08T01:44:41;98802.53;;;30.84;31.86
14902;BME280;7542;49.078;9.194;2023-09-08T01:45:43;98797.91;;;30.85;32.05
14902;BME280;7542;49.078;9.194;2023-09-08T01:46:45;98793.88;;;30.82;31.55
14902;BME280;7542;49.078;9.194;2023-09-08T01:47:47;98802.81;;;30.83;32.01
14902;BME280;7542;49.078;9.194;2023-09-08T01:48:49;98799.28;;;30.82;31.56
14902;BME280;7542;49.078;9.194;2023-09-08T01:49:51;98793.06;;;30.82;31.55
14902;BME280;7542;49.078;9.194;2023-09-08T01:50:53;98805.00;;;30.81;32.06
14902;BME280;7542;49.078;9.194;2023-09-08T01:51:55;98801.50;;;30.80;31.50
14902;BME280;7542;49.078;9.194;2023-09-08T01:52:58;98805.31;;;30.79;31.69
14902;BME280;7542;49.078;9.194;2023-09-08T01:54:00;98791.75;;;30.79;32.02
14902;BME280;7542;49.078;9.194;2023-09-08T01:55:02;98799.38;;;30.77;31.91
14902;BME280;7542;49.078;9.194;2023-09-08T01:56:04;98799.38;;;30.77;31.93
14902;BME280;7542;49.078;9.194;2023-09-08T01:57:05;98803.19;;;30.76;31.49
14902;BME280;7542;49.078;9.194;2023-09-08T01:58:07;98797.78;;;30.76;32.19
14902;BME280;7542;49.078;9.194;2023-09-08T01:59:09;98792.16;;;30.73;32.05
14902;BME280;7542;49.078;9.194;2023-09-08T02:00:12;98793.78;;;30.74;31.63
14902;BME280;7542;49.078;9.194;2023-09-08T02:01:14;98797.56;;;30.73;31.68
14902;BME280;7542;49.078;9.194;2023-09-08T02:02:16;98801.09;;;30.73;31.55
14902;BME280;7542;49.078;9.194;2023-09-08T02:03:18;98808.69;;;30.71;31.72
14902;BME280;7542;49.078;9.194;2023-09-08T02:07:03;98803.69;;;30.78;31.39
14902;BME280;7542;49.078;9.194;2023-09-08T02:08:06;98809.47;;;30.72;31.76
14902;BME280;7542;49.078;9.194;2023-09-08T02:09:08;98804.66;;;30.69;31.98
14902;BME280;7542;49.078;9.194;2023-09-08T02:10:13;98806.88;;;30.67;31.64
14902;BME280;7542;49.078;9.194;2023-09-08T02:11:15;98806.38;;;30.65;31.82
14902;BME280;7542;49.078;9.194;2023-09-08T02:12:17;98802.84;;;30.64;31.73
14902;BME280;7542;49.078;9.194;2023-09-08T02:13:19;98805.03;;;30.62;31.97
14902;BME280;7542;49.078;9.194;2023-09-08T02:14:21;98812.03;;;30.63;32.03
14902;BME280;7542;49.078;9.194;2023-09-08T02:15:23;98807.22;;;30.60;31.69
14902;BME280;7542;49.078;9.194;2023-09-08T02:16:26;98812.03;;;30.63;31.98
14902;BME280;7542;49.078;9.194;2023-09-08T02:17:30;98807.22;;;30.60;32.14
14902;BME280;7542;49.078;9.194;2023-09-08T02:18:32;98806.41;;;30.59;32.37
14902;BME280;7542;49.078;9.194;2023-09-08T02:19:34;98813.41;;;30.60;31.87
14902;BME280;7542;49.078;9.194;2023-09-08T02:20:37;98818.56;;;30.62;32.07
14902;BME280;7542;49.078;9.194;2023-09-08T02:21:39;98813.72;;;30.59;32.22
14902;BME280;7542;49.078;9.194;2023-09-08T02:22:41;98809.09;;;30.59;31.88
14902;BME280;7542;49.078;9.194;2023-09-08T02:23:43;98820.22;;;30.58;31.86
14902;BME280;7542;49.078;9.194;2023-09-08T02:24:45;98817.53;;;30.58;32.22
14902;BME280;7542;49.078;9.194;2023-09-08T02:26:50;98806.19;;;30.56;32.31
14902;BME280;7542;49.078;9.194;2023-09-08T02:27:52;98805.41;;;30.55;32.35
14902;BME280;7542;49.078;9.194;2023-09-08T02:28:55;98804.59;;;30.55;32.16
14902;BME280;7542;49.078;9.194;2023-09-08T02:29:57;98807.59;;;30.53;31.82
14902;BME280;7542;49.078;9.194;2023-09-08T02:30:59;98799.25;;;30.50;32.23
14902;BME280;7542;49.078;9.194;2023-09-08T02:32:01;98800.88;;;30.51;32.30
14902;BME280;7542;49.078;9.194;2023-09-08T02:33:03;98801.94;;;30.50;31.83
14902;BME280;7542;49.078;9.194;2023-09-08T02:34:05;98800.59;;;30.52;32.17
14902;BME280;7542;49.078;9.194;2023-09-08T02:35:07;98790.06;;;30.51;31.84
14902;BME280;7542;49.078;9.194;2023-09-08T02:36:09;98802.25;;;30.48;31.98
14902;BME280;7542;49.078;9.194;2023-09-08T02:37:11;98794.94;;;30.49;32.38
14902;BME280;7542;49.078;9.194;2023-09-08T02:38:13;98799.53;;;30.48;32.07
14902;BME280;7542;49.078;9.194;2023-09-08T02:39:15;98800.34;;;30.49;31.84
14902;BME280;7542;49.078;9.194;2023-09-08T02:40:18;98798.44;;;30.49;31.92
14902;BME280;7542;49.078;9.194;2023-09-08T02:41:23;98793.34;;;30.48;31.91
14902;BME280;7542;49.078;9.194;2023-09-08T02:42:25;98796.03;;;30.48;32.33
14902;BME280;7542;49.078;9.194;2023-09-08T02:43:27;98795.25;;;30.47;31.78
14902;BME280;7542;49.078;9.194;2023-09-08T02:44:31;98799.84;;;30.47;32.10
14902;BME280;7542;49.078;9.194;2023-09-08T02:45:33;98791.72;;;30.47;31.95
14902;BME280;7542;49.078;9.194;2023-09-08T02:46:37;98791.53;;;30.43;32.11
14902;BME280;7542;49.078;9.194;2023-09-08T02:47:39;98797.72;;;30.44;32.24
14902;BME280;7542;49.078;9.194;2023-09-08T02:48:41;98796.13;;;30.43;32.15
14902;BME280;7542;49.078;9.194;2023-09-08T02:49:43;98795.63;;;30.41;32.32
14902;BME280;7542;49.078;9.194;2023-09-08T02:50:45;98792.91;;;30.41;32.26
14902;BME280;7542;49.078;9.194;2023-09-08T02:51:48;98794.28;;;30.38;32.31
14902;BME280;7542;49.078;9.194;2023-09-08T02:52:50;98791.59;;;30.38;32.48
14902;BME280;7542;49.078;9.194;2023-09-08T02:53:52;98798.34;;;30.41;32.42
14902;BME280;7542;49.078;9.194;2023-09-08T02:54:54;98795.91;;;30.39;32.35
14902;BME280;7542;49.078;9.194;2023-09-08T02:55:58;98787.78;;;30.39;32.46
14902;BME280;7542;49.078;9.194;2023-09-08T02:57:00;98792.38;;;30.39;32.18
14902;BME280;7542;49.078;9.194;2023-09-08T02:58:02;98792.69;;;30.37;31.95
14902;BME280;7542;49.078;9.194;2023-09-08T02:59:04;98791.88;;;30.37;31.92
14902;BME280;7542;49.078;9.194;2023-09-08T03:00:06;98788.06;;;30.38;31.91
14902;BME280;7542;49.078;9.194;2023-09-08T03:02:12;98781.06;;;30.37;31.90
14902;BME280;7542;49.078;9.194;2023-09-08T03:03:14;98788.97;;;30.33;32.21
14902;BME280;7542;49.078;9.194;2023-09-08T03:04:17;98783.25;;;30.35;32.37
14902;BME280;7542;49.078;9.194;2023-09-08T03:05:19;98794.38;;;30.33;32.16
14902;BME280;7542;49.078;9.194;2023-09-08T03:06:21;98791.69;;;30.33;32.37
14902;BME280;7542;49.078;9.194;2023-09-08T03:07:23;98793.56;;;30.33;32.24
14902;BME280;7542;49.078;9.194;2023-09-08T03:08:25;98793.06;;;30.30;31.98
14902;BME280;7542;49.078;9.194;2023-09-08T03:09:27;98789.88;;;30.28;32.46
14902;BME280;7542;49.078;9.194;2023-09-08T03:10:29;98791.47;;;30.29;32.08
14902;BME280;7542;49.078;9.194;2023-09-08T03:11:31;98793.63;;;30.27;32.21
14902;BME280;7542;49.078;9.194;2023-09-08T03:12:33;98793.63;;;30.27;31.89
14902;BME280;7542;49.078;9.194;2023-09-08T03:13:35;98792.03;;;30.26;32.11
14902;BME280;7542;49.078;9.194;2023-09-08T03:14:37;98790.94;;;30.27;32.12
14902;BME280;7542;49.078;9.194;2023-09-08T03:15:39;98789.63;;;30.25;31.96
14902;BME280;7542;49.078;9.194;2023-09-08T03:16:41;98789.63;;;30.25;32.03
14902;BME280;7542;49.078;9.194;2023-09-08T03:17:43;98791.53;;;30.24;32.44
14902;BME280;7542;49.078;9.194;2023-09-08T03:18:45;98796.66;;;30.26;32.58
14902;BME280;7542;49.078;9.194;2023-09-08T03:19:47;98789.94;;;30.23;32.26
14902;BME280;7542;49.078;9.194;2023-09-08T03:20:50;98786.41;;;30.23;32.30
14902;BME280;7542;49.078;9.194;2023-09-08T03:21:52;98771.16;;;30.13;32.41
14902;BME280;7542;49.078;9.194;2023-09-08T03:22:54;98786.72;;;30.21;32.21
14902;BME280;7542;49.078;9.194;2023-09-08T03:23:56;98783.50;;;30.19;32.51
14902;BME280;7542;49.078;9.194;2023-09-08T03:24:58;98787.00;;;30.20;32.44
14902;BME280;7542;49.078;9.194;2023-09-08T03:26:01;98787.00;;;30.20;32.08
14902;BME280;7542;49.078;9.194;2023-09-08T03:27:03;98787.31;;;30.18;32.20
14902;BME280;7542;49.078;9.194;2023-09-08T03:28:05;98785.97;;;30.16;32.46
14902;BME280;7542;49.078;9.194;2023-09-08T03:29:07;98786.78;;;30.16;32.30
14902;BME280;7542;49.078;9.194;2023-09-08T03:30:10;98781.97;;;30.13;32.19
14902;BME280;7542;49.078;9.194;2023-09-08T03:31:12;98792.19;;;30.16;32.60
14902;BME280;7542;49.078;9.194;2023-09-08T03:32:14;98792.19;;;30.16;32.06
14902;BME280;7542;49.078;9.194;2023-09-08T03:33:16;98793.28;;;30.15;32.00
14902;BME280;7542;49.078;9.194;2023-09-08T03:34:18;98791.69;;;30.14;32.62
14902;BME280;7542;49.078;9.194;2023-09-08T03:35:22;98795.19;;;30.15;32.64
14902;BME280;7542;49.078;9.194;2023-09-08T03:36:26;98787.97;;;30.10;32.57
14902;BME280;7542;49.078;9.194;2023-09-08T03:37:28;98786.91;;;30.06;32.40
14902;BME280;7542;49.078;9.194;2023-09-08T03:38:30;98784.16;;;30.11;32.22
14902;BME280;7542;49.078;9.194;2023-09-08T03:39:32;98793.38;;;30.10;32.29
14902;BME280;7542;49.078;9.194;2023-09-08T03:40:34;98796.59;;;30.12;32.69
14902;BME280;7542;49.078;9.194;2023-09-08T03:41:36;98780.69;;;30.06;32.32
14902;BME280;7542;49.078;9.194;2023-09-08T03:42:38;98789.34;;;30.08;32.32
14902;BME280;7542;49.078;9.194;2023-09-08T03:43:40;98791.47;;;30.11;32.42
14902;BME280;7542;49.078;9.194;2023-09-08T03:44:42;98786.91;;;30.06;32.34
14902;BME280;7542;49.078;9.194;2023-09-08T03:45:45;98783.38;;;30.06;32.27
14902;BME280;7542;49.078;9.194;2023-09-08T03:46:47;98789.09;;;30.04;32.23
14902;BME280;7542;49.078;9.194;2023-09-08T03:47:49;98789.88;;;30.05;32.20
14902;BME280;7542;49.078;9.194;2023-09-08T03:48:51;98797.47;;;30.08;32.35
14902;BME280;7542;49.078;9.194;2023-09-08T03:49:56;98789.88;;;30.05;32.63
14902;BME280;7542;49.078;9.194;2023-09-08T03:50:58;98793.41;;;30.05;32.66
14902;BME280;7542;49.078;9.194;2023-09-08T03:52:00;98786.69;;;30.02;32.23
14902;BME280;7542;49.078;9.194;2023-09-08T03:53:02;98784.78;;;30.03;32.52
14902;BME280;7542;49.078;9.194;2023-09-08T03:54:05;98794.00;;;30.02;32.57
14902;BME280;7542;49.078;9.194;2023-09-08T03:55:07;98779.00;;;29.91;32.18
14902;BME280;7542;49.078;9.194;2023-09-08T03:56:09;98791.00;;;30.03;32.10
14902;BME280;7542;49.078;9.194;2023-09-08T03:57:11;98792.69;;;29.99;32.09
14902;BME280;7542;49.078;9.194;2023-09-08T03:58:13;98791.28;;;30.02;32.09
14902;BME280;7542;49.078;9.194;2023-09-08T03:59:15;98788.38;;;29.98;32.23
14902;BME280;7542;49.078;9.194;2023-09-08T04:00:17;98789.69;;;30.01;32.20
14902;BME280;7542;49.078;9.194;2023-09-08T04:01:24;98788.38;;;29.98;32.30
14902;BME280;7542;49.078;9.194;2023-09-08T04:02:26;98788.06;;;30.00;32.69
14902;BME280;7542;49.078;9.194;2023-09-08T04:03:28;98785.66;;;29.98;32.64
14902;BME280;7542;49.078;9.194;2023-09-08T04:04:31;98791.06;;;29.98;32.54
14902;BME280;7542;49.078;9.194;2023-09-08T04:05:33;98789.75;;;29.96;32.51
14902;BME280;7542;49.078;9.194;2023-09-08T04:06:35;98795.69;;;29.98;32.50
14902;BME280;7542;49.078;9.194;2023-09-08T04:07:37;98795.97;;;29.96;32.28
14902;BME280;7542;49.078;9.194;2023-09-08T04:08:39;98793.53;;;29.95;32.47
14902;BME280;7542;49.078;9.194;2023-09-08T04:09:41;98798.94;;;29.95;32.76
14902;BME280;7542;49.078;9.194;2023-09-08T04:10:44;98791.94;;;29.94;32.42
14902;BME280;7542;49.078;9.194;2023-09-08T04:11:46;98796.53;;;29.93;32.31
14902;BME280;7542;49.078;9.194;2023-09-08T04:12:48;98801.44;;;29.91;32.59
14902;BME280;7542;49.078;9.194;2023-09-08T04:13:50;98797.94;;;29.91;32.60
14902;BME280;7542;49.078;9.194;2023-09-08T04:14:52;98798.72;;;29.91;32.88
14902;BME280;7542;49.078;9.194;2023-09-08T04:15:54;98802.81;;;29.89;32.42
14902;BME280;7542;49.078;9.194;2023-09-08T04:16:57;98808.22;;;29.89;32.55
14902;BME280;7542;49.078;9.194;2023-09-08T04:17:58;98798.53;;;29.88;32.32
14902;BME280;7542;49.078;9.194;2023-09-08T04:19:01;98805.03;;;29.87;32.28
14902;BME280;7542;49.078;9.194;2023-09-08T04:20:04;98805.81;;;29.87;32.94
14902;BME280;7542;49.078;9.194;2023-09-08T04:21:07;98801.53;;;29.86;32.41
14902;BME280;7542;49.078;9.194;2023-09-08T04:22:09;98806.94;;;29.86;32.69
14902;BME280;7542;49.078;9.194;2023-09-08T04:23:11;98811.53;;;29.86;32.28
14902;BME280;7542;49.078;9.194;2023-09-08T04:24:13;98807.19;;;29.85;32.66
14902;BME280;7542;49.078;9.194;2023-09-08T04:25:16;98811.78;;;29.84;32.84
14902;BME280;7542;49.078;9.194;2023-09-08T04:26:17;98804.78;;;29.83;32.73
14902;BME280;7542;49.078;9.194;2023-09-08T04:27:19;98803.97;;;29.83;32.81
14902;BME280;7542;49.078;9.194;2023-09-08T04:28:22;98803.47;;;29.81;32.36
14902;BME280;7542;49.078;9.194;2023-09-08T04:29:24;98806.16;;;29.81;32.55
14902;BME280;7542;49.078;9.194;2023-09-08T04:30:26;98802.66;;;29.80;32.39
14902;BME280;7542;49.078;9.194;2023-09-08T04:31:28;98806.47;;;29.79;32.54
14902;BME280;7542;49.078;9.194;2023-09-08T04:32:30;98802.97;;;29.79;32.45
14902;BME280;7542;49.078;9.194;2023-09-08T04:33:32;98814.88;;;29.78;32.88
14902;BME280;7542;49.078;9.194;2023-09-08T04:34:41;98815.88;;;29.82;32.50
14902;BME280;7542;49.078;9.194;2023-09-08T04:35:43;98810.25;;;29.78;32.39
14902;BME280;7542;49.078;9.194;2023-09-08T04:36:46;98807.56;;;29.78;32.41
14902;BME280;7542;49.078;9.194;2023-09-08T04:37:48;98813.25;;;29.77;33.06
14902;BME280;7542;49.078;9.194;2023-09-08T04:38:49;98802.75;;;29.75;32.51
14902;BME280;7542;49.078;9.194;2023-09-08T04:39:51;98808.41;;;29.73;32.64
14902;BME280;7542;49.078;9.194;2023-09-08T04:40:53;98804.66;;;29.75;32.77
14902;BME280;7542;49.078;9.194;2023-09-08T04:41:56;98807.34;;;29.75;32.86
14902;BME280;7542;49.078;9.194;2023-09-08T04:42:58;98805.72;;;29.73;32.89
14902;BME280;7542;49.078;9.194;2023-09-08T04:43:59;98808.41;;;29.73;32.46
14902;BME280;7542;49.078;9.194;2023-09-08T04:45:02;98812.22;;;29.72;32.72
14902;BME280;7542;49.078;9.194;2023-09-08T04:46:04;98809.50;;;29.72;32.75
14902;BME280;7542;49.078;9.194;2023-09-08T04:47:06;98800.69;;;29.67;32.91
14902;BME280;7542;49.078;9.194;2023-09-08T04:48:09;98807.91;;;29.71;32.86
14902;BME280;7542;49.078;9.194;2023-09-08T04:49:11;98814.41;;;29.70;32.98
14902;BME280;7542;49.078;9.194;2023-09-08T04:50:13;98813.31;;;29.71;32.64
14902;BME280;7542;49.078;9.194;2023-09-08T04:51:15;98805.19;;;29.71;32.58
14902;BME280;7542;49.078;9.194;2023-09-08T04:52:17;98810.91;;;29.70;32.58
14902;BME280;7542;49.078;9.194;2023-09-08T04:53:19;98816.31;;;29.70;32.83
14902;BME280;7542;49.078;9.194;2023-09-08T04:54:21;98812.28;;;29.67;32.62
14902;BME280;7542;49.078;9.194;2023-09-08T04:55:24;98812.81;;;29.69;33.14
14902;BME280;7542;49.078;9.194;2023-09-08T04:56:26;98810.38;;;29.68;32.99
14902;BME280;7542;49.078;9.194;2023-09-08T04:57:28;98814.19;;;29.67;32.92
14902;BME280;7542;49.078;9.194;2023-09-08T04:58:30;98809.88;;;29.66;32.82
14902;BME280;7542;49.078;9.194;2023-09-08T04:59:32;98820.19;;;29.64;32.59
14902;BME280;7542;49.078;9.194;2023-09-08T05:00:37;98818.28;;;29.64;32.93
14902;BME280;7542;49.078;9.194;2023-09-08T05:01:40;98813.97;;;29.63;32.51
14902;BME280;7542;49.078;9.194;2023-09-08T05:02:42;98821.25;;;29.63;32.60
14902;BME280;7542;49.078;9.194;2023-09-08T05:03:45;98816.69;;;29.63;33.17
14902;BME280;7542;49.078;9.194;2023-09-08T05:04:47;98812.34;;;29.62;32.73
14902;BME280;7542;49.078;9.194;2023-09-08T05:05:49;98814.25;;;29.62;32.68
14902;BME280;7542;49.078;9.194;2023-09-08T05:06:52;98816.13;;;29.61;32.61
14902;BME280;7542;49.078;9.194;2023-09-08T05:07:54;98808.84;;;29.62;32.58
14902;BME280;7542;49.078;9.194;2023-09-08T05:08:59;98814.25;;;29.62;32.76
14902;BME280;7542;49.078;9.194;2023-09-08T05:10:02;98814.53;;;29.60;32.80
14902;BME280;7542;49.078;9.194;2023-09-08T05:11:04;98810.22;;;29.59;32.88
14902;BME280;7542;49.078;9.194;2023-09-08T05:12:06;98812.63;;;29.61;32.51
14902;BME280;7542;49.078;9.194;2023-09-08T05:13:08;98815.13;;;29.57;32.98
14902;BME280;7542;49.078;9.194;2023-09-08T05:14:25;98816.13;;;29.61;32.53
14902;BME280;7542;49.078;9.194;2023-09-08T05:15:27;98813.72;;;29.60;33.06
14902;BME280;7542;49.078;9.194;2023-09-08T05:16:29;98818.31;;;29.59;33.20
14902;BME280;7542;49.078;9.194;2023-09-08T05:17:52;98821.25;;;29.63;32.70
14902;BME280;7542;49.078;9.194;2023-09-08T05:18:54;98821.03;;;29.59;33.21
14902;BME280;7542;49.078;9.194;2023-09-08T05:19:56;98819.72;;;29.57;32.99
14902;BME280;7542;49.078;9.194;2023-09-08T05:20:58;98820.00;;;29.55;32.90
14902;BME280;7542;49.078;9.194;2023-09-08T05:22:00;98821.91;;;29.55;33.07
14902;BME280;7542;49.078;9.194;2023-09-08T05:23:03;98827.31;;;29.55;33.34
14902;BME280;7542;49.078;9.194;2023-09-08T05:24:05;98823.81;;;29.54;32.87
14902;BME280;7542;49.078;9.194;2023-09-08T05:25:08;98823.81;;;29.54;33.19
14902;BME280;7542;49.078;9.194;2023-09-08T05:26:10;98816.78;;;29.53;33.03
14902;BME280;7542;49.078;9.194;2023-09-08T05:27:12;98830.81;;;29.55;33.33
14902;BME280;7542;49.078;9.194;2023-09-08T05:28:14;98831.09;;;29.54;33.17
14902;BME280;7542;49.078;9.194;2023-09-08T05:29:16;98829.22;;;29.54;33.40
14902;BME280;7542;49.078;9.194;2023-09-08T05:30:18;98829.22;;;29.54;33.00
14902;BME280;7542;49.078;9.194;2023-09-08T05:31:21;98827.59;;;29.53;33.52
14902;BME280;7542;49.078;9.194;2023-09-08T05:32:23;98836.22;;;29.55;33.20
14902;BME280;7542;49.078;9.194;2023-09-08T05:33:25;98835.41;;;29.55;33.32
14902;BME280;7542;49.078;9.194;2023-09-08T05:34:27;98822.72;;;29.55;33.36
14902;BME280;7542;49.078;9.194;2023-09-08T05:35:29;98823.81;;;29.54;33.53
14902;BME280;7542;49.078;9.194;2023-09-08T05:36:31;98828.41;;;29.54;33.50
14902;BME280;7542;49.078;9.194;2023-09-08T05:37:37;98832.72;;;29.55;33.25
14902;BME280;7542;49.078;9.194;2023-09-08T05:38:40;98830.00;;;29.55;33.81
14902;BME280;7542;49.078;9.194;2023-09-08T05:39:42;98831.91;;;29.54;33.55
14902;BME280;7542;49.078;9.194;2023-09-08T05:40:44;98833.50;;;29.55;33.71
14902;BME280;7542;49.078;9.194;2023-09-08T05:41:46;98835.41;;;29.55;33.36
14902;BME280;7542;49.078;9.194;2023-09-08T05:42:48;98834.63;;;29.54;33.55
14902;BME280;7542;49.078;9.194;2023-09-08T05:43:50;98823.00;;;29.54;33.75